To NAV CANADA Home Page Login to a new session Search on AWWS site Feedback and Comments Disclaimer Vers la page française équivalente Tips FAQ What's new on the site To the Forecasts and Observations / NOTAM section To "File a Flight Plan" website Publications and other links Update of the User's profile FIC Telephone Numbers My Weather Data Folder Route Weather Data Regional Weather Data Local Weather Data To the Forecasts and Observations / NOTAM section
Request Generated 04/27/2015 at 10:30:17 UTC . Weather information available at that time is displayed.

METAR/TAF

OLD CROW/YT    

LWIS CYOC 271000Z AUTO 07003KT 030V160 M03/M04 A2979=
LWIS CYOC 270900Z AUTO 06005KT 040V120 M01/M04 A2979=
LWIS CYOC 270800Z AUTO 07005KT 050V120 M01/M03 A2979=

*** REMARK        : Forecast period has ended; this was the last TAF issued
*** REMARQUE : La période de prévision est échue; ceci était le dernier TAF qui a été émis
TAF CYOC 261738Z 2618/2701 VRB03KT P6SM FEW030
BECMG 2622/2624 04008KT
RMK NXT FCST WILL BE ISSUED AT 271445Z=
Your time UTC time
Weather data provided by Environment Canada and NAV CANADA